aviador You're here:

EYVI Decoded Metar

VILNIUS INTL in LITHUANIA
Report Time2017-05-30 10:50:00
UTC Time2017-05-30 11:13:20
Flight Rules vfr VFR
Wind290° at 06 kt
W.Decomp.*RWY 20: 0.6 kt HW 6.0 kt RCW
W.Rank290° ranks 17
Current wind is below 290° avg. (8.0)
Visibility9999 m
Phenomena:N/A
Clouds:Scattered 031 Hf
Expected CloudBase > 3,600 ft AGL from Temp-Dew spread
CeilingNone
Temp19°C (ISA +5)
Dew Point10°C (56% RH)
AAT16.9°C
QNH1012 hPa
Density Alt1,467 ft
Elevation646 ft
Report Wrong Elevation
Raw Report
EYVI 301050Z 29006KT 210V320 9999 SCT031 19/10 Q1012 NOSIG=

Extra information for EYVI:More info

Metar Taf Metar & Taf Last 4 Metars F.Rules Stats Wind Profile Meteogram Temp Stats Airport Information Weather charts Add Link Nearby VenuesMetar ALERT Operation Metar Decoded Social comments